KDHN/DHN METAR and TAF weather

Enter ICAO airport designator
Station Type Date Time Source
KDHN METAR 2022/11/27 07:53 UTC NOAA

KDHN 270753Z AUTO 18015G22KT 10SM BKN010 OVC015 22/22 A2984 RMK AO2 LTG DSNT NW RAB06E50 CIG 006V013 SLP100 P0003 T02220222


Station Type Date Time Source
KDHN Decoded METAR 2022/11/27 07:53 UTC NOAA

DOTHAN AIRPORT, AL, United States (KDHN) 31-19N 085-27W 113M
Nov 27, 2022 - 02:53 AM EST / 2022.11.27 0753 UTC
Wind: from the S (180 degrees) at 17 MPH (15 KT) gusting to 25 MPH (22 KT):0
Visibility: 10 mile(s):0
Sky conditions: overcast
Weather: Lightning observed
Precipitation last hour: 0.03 inches
Temperature: 72.0 F (22.2 C)
Dew Point: 72.0 F (22.2 C)
Relative Humidity: 100%
Pressure (altimeter): 29.84 in. Hg (1010 hPa)
ob: KDHN 270753Z AUTO 18015G22KT 10SM BKN010 OVC015 22/22 A2984 RMK AO2 LTG DSNT NW RAB06E50 CIG 006V013 SLP100 P0003 T02220222
cycle: 8

Station Type Date Time Source
KDHN TAF 2022/11/27 06:22 UTC NOAA

TAF KDHN 270520Z 2706/2806 13012KT 3SM -SHRA BR OVC002
FM270630 13012G20KT 2SM TSRA BKN006 OVC015CB
FM271000 20013G20KT P6SM BKN009 OVC015
FM271300 26015G22KT P6SM SCT040
FM280200 24005KT P6SM SKC

Example: see airport list